Time;durP1;ratioP1;P1;durP2;ratioP2;P2;SDS_P1;SDS_P2;PMS_P1;PMS_P2;Temp;Humidity;BMP_temperature;BMP_pressure;BME280_temperature;BME280_humidity;BME280_pressure;Samples;Min_cycle;Max_cycle;Signal;HPM_P1;HPM_P2
2022/11/26 00:02:27;;;;;;;38.88;26.88;;;3.60;99.90;;;;;;5051750;28;20135;-64
2022/11/26 00:04:55;;;;;;;43.47;36.33;;;3.50;99.90;;;;;;5052714;28;20104;-63
2022/11/26 00:07:25;;;;;;;76.60;51.50;;;3.40;99.90;;;;;;5052663;28;20117;-63
2022/11/26 00:09:52;;;;;;;220.70;124.85;;;3.40;99.90;;;;;;5052550;28;20386;-64
2022/11/26 00:12:24;;;;;;;113.47;70.53;;;3.30;99.90;;;;;;5052334;28;20509;-63
2022/11/26 00:14:50;;;;;;;85.93;56.10;;;3.30;99.90;;;;;;5052405;28;20025;-63
2022/11/26 00:17:17;;;;;;;44.47;29.77;;;3.30;99.90;;;;;;5052406;28;20082;-63
2022/11/26 00:19:44;;;;;;;73.95;40.20;;;3.40;99.90;;;;;;5052463;28;20108;-63
2022/11/26 00:22:27;;;;;;;140.32;71.53;;;3.40;99.90;;;;;;5052004;28;20029;-63
2022/11/26 00:24:54;;;;;;;199.10;95.50;;;3.40;99.90;;;;;;5051887;28;20072;-63
2022/11/26 00:27:23;;;;;;;87.65;52.50;;;3.30;99.90;;;;;;5052029;28;20444;-63
2022/11/26 00:29:49;;;;;;;29.73;20.23;;;3.30;99.90;;;;;;5052022;28;20385;-63
2022/11/26 00:32:23;;;;;;;25.38;14.00;;;3.50;99.90;;;;;;5052041;28;20115;-63
2022/11/26 00:34:49;;;;;;;24.48;15.00;;;4.00;99.90;;;;;;5051711;28;20017;-63
2022/11/26 00:37:26;;;;;;;24.10;12.38;;;4.20;99.90;;;;;;5051965;28;20047;-63
2022/11/26 00:39:52;;;;;;;21.73;11.80;;;4.20;99.90;;;;;;5051975;28;20045;-63
2022/11/26 00:42:18;;;;;;;24.60;12.02;;;4.10;99.90;;;;;;5052061;28;20525;-63
2022/11/26 00:44:44;;;;;;;16.42;9.98;;;4.40;99.90;;;;;;5051760;28;20021;-63
2022/11/26 00:47:10;;;;;;;26.15;12.65;;;4.40;99.90;;;;;;5051961;28;20041;-62
2022/11/26 00:49:36;;;;;;;27.63;14.93;;;4.40;99.90;;;;;;5052287;28;20107;-63
2022/11/26 00:52:03;;;;;;;22.27;14.23;;;4.30;99.90;;;;;;5051727;28;20114;-63
2022/11/26 00:54:29;;;;;;;25.15;15.55;;;4.10;99.90;;;;;;5051871;28;20025;-63
2022/11/26 00:56:55;;;;;;;23.77;15.20;;;3.80;99.90;;;;;;5051755;28;20509;-63
2022/11/26 00:59:22;;;;;;;25.65;16.58;;;3.70;99.90;;;;;;5051889;28;20021;-63
2022/11/26 01:01:48;;;;;;;21.55;13.20;;;3.60;99.90;;;;;;5052137;28;20109;-63
2022/11/26 01:04:14;;;;;;;20.83;13.63;;;3.60;99.90;;;;;;5051654;28;20033;-63
2022/11/26 01:06:42;;;;;;;26.08;14.02;;;3.50;99.90;;;;;;5051606;28;20577;-63
2022/11/26 01:09:20;;;;;;;20.27;12.75;;;3.60;99.90;;;;;;5051653;28;20025;-63
2022/11/26 01:11:46;;;;;;;21.83;13.43;;;3.70;99.90;;;;;;5051724;28;20025;-63
2022/11/26 01:14:17;;;;;;;21.67;12.52;;;3.70;99.90;;;;;;5051642;28;20053;-63
2022/11/26 01:16:44;;;;;;;24.73;12.30;;;3.80;99.90;;;;;;5051617;28;20482;-63
2022/11/26 01:19:12;;;;;;;24.95;13.23;;;4.00;99.90;;;;;;5051594;28;20024;-63
2022/11/26 01:21:38;;;;;;;18.85;10.80;;;4.20;99.90;;;;;;5051567;28;20065;-63
2022/11/26 01:24:04;;;;;;;24.08;11.77;;;4.10;99.90;;;;;;5051283;28;20072;-63
2022/11/26 01:26:38;;;;;;;20.42;9.85;;;3.90;99.90;;;;;;5051502;28;20440;-63
2022/11/26 01:29:04;;;;;;;18.95;11.02;;;3.80;99.90;;;;;;5051152;28;20017;-63
2022/11/26 01:31:30;;;;;;;15.65;8.95;;;3.70;99.90;;;;;;5051850;28;20031;-63
2022/11/26 01:33:56;;;;;;;23.42;9.82;;;3.90;99.90;;;;;;5051398;28;20040;-64
2022/11/26 01:36:29;;;;;;;14.50;8.52;;;4.20;99.90;;;;;;5051194;28;20033;-63
2022/11/26 01:39:11;;;;;;;16.98;9.05;;;4.00;99.90;;;;;;5051437;28;20496;-63
2022/11/26 01:42:04;;;;;;;15.68;8.85;;;3.80;99.90;;;;;;5051324;28;20446;-64
2022/11/26 01:44:32;;;;;;;15.73;7.45;;;3.70;99.90;;;;;;5051448;28;20017;-63
2022/11/26 01:46:58;;;;;;;14.55;8.13;;;3.70;99.90;;;;;;5053406;28;20036;-64
2022/11/26 01:49:27;;;;;;;21.52;8.70;;;3.70;99.90;;;;;;5054952;28;20021;-63
2022/11/26 01:52:15;;;;;;;18.17;8.63;;;3.90;99.90;;;;;;5054265;28;20025;-64
2022/11/26 01:54:42;;;;;;;19.08;7.78;;;3.90;99.90;;;;;;5054813;28;20051;-64
2022/11/26 01:57:21;;;;;;;12.90;7.10;;;3.80;99.90;;;;;;5055313;28;20104;-64
2022/11/26 01:59:53;;;;;;;17.80;7.57;;;3.80;99.90;;;;;;5055145;28;20060;-64
2022/11/26 02:02:22;;;;;;;15.35;7.93;;;3.90;99.90;;;;;;5055116;28;20028;-64
2022/11/26 02:04:50;;;;;;;14.13;7.15;;;4.00;99.90;;;;;;5054747;28;20039;-64
2022/11/26 02:07:16;;;;;;;15.18;6.80;;;4.00;99.90;;;;;;5054810;28;20051;-64
2022/11/26 02:09:42;;;;;;;24.15;9.10;;;4.40;99.90;;;;;;5054897;28;20092;-64
2022/11/26 02:12:08;;;;;;;15.30;6.20;;;4.70;99.90;;;;;;5053016;28;20509;-64
2022/11/26 02:14:42;;;;;;;21.00;8.45;;;4.50;99.90;;;;;;5055077;28;20078;-64
2022/11/26 02:17:53;;;;;;;15.90;8.07;;;4.60;99.90;;;;;;5054541;28;20045;-64
2022/11/26 02:20:42;;;;;;;19.00;8.98;;;4.60;99.90;;;;;;5053226;28;20033;-63
2022/11/26 02:23:35;;;;;;;20.25;10.27;;;4.60;99.90;;;;;;5054836;28;20021;-64
2022/11/26 02:26:38;;;;;;;24.38;11.05;;;4.60;99.90;;;;;;5054320;28;20114;-63
2022/11/26 02:29:20;;;;;;;20.63;11.52;;;4.40;99.90;;;;;;5054436;28;20512;-64
2022/11/26 02:32:07;;;;;;;23.42;13.45;;;4.40;99.90;;;;;;5054301;28;20017;-64
2022/11/26 02:34:58;;;;;;;23.83;12.63;;;4.40;99.90;;;;;;5054399;28;20017;-64
2022/11/26 02:37:34;;;;;;;23.80;11.18;;;4.30;99.90;;;;;;5034691;28;20025;-64
2022/11/26 02:40:00;;;;;;;18.70;9.35;;;4.50;99.90;;;;;;5032955;28;20076;-64
2022/11/26 02:42:31;;;;;;;19.83;9.70;;;4.80;99.90;;;;;;5033990;28;20025;-64
2022/11/26 02:45:03;;;;;;;23.10;11.02;;;5.10;99.90;;;;;;5034059;28;20563;-64
2022/11/26 02:47:31;;;;;;;21.45;9.48;;;5.40;99.90;;;;;;5033933;28;20459;-64
2022/11/26 02:50:02;;;;;;;30.50;14.23;;;5.10;99.90;;;;;;5034012;28;20022;-64
2022/11/26 02:52:29;;;;;;;21.85;12.23;;;4.90;99.90;;;;;;5034134;28;20028;-64
2022/11/26 02:54:56;;;;;;;27.50;13.05;;;4.80;99.90;;;;;;5033943;28;20108;-64
2022/11/26 02:57:25;;;;;;;23.58;11.80;;;4.80;99.90;;;;;;5033632;28;20029;-64
2022/11/26 02:59:51;;;;;;;17.98;11.52;;;4.80;99.90;;;;;;5033599;28;20025;-63
2022/11/26 03:02:23;;;;;;;12.68;7.82;;;4.80;99.90;;;;;;5033814;28;20124;-64
2022/11/26 03:04:52;;;;;;;19.13;12.03;;;4.80;99.90;;;;;;5034115;28;20021;-64
2022/11/26 03:07:19;;;;;;;22.23;11.65;;;5.10;99.90;;;;;;5033648;28;20076;-64
2022/11/26 03:09:57;;;;;;;22.23;12.95;;;5.20;99.90;;;;;;5033489;28;20557;-64
2022/11/26 03:12:23;;;;;;;28.08;12.48;;;5.30;99.90;;;;;;5033512;28;20038;-64
2022/11/26 03:14:49;;;;;;;26.10;13.63;;;5.30;99.90;;;;;;5033505;28;20100;-63
2022/11/26 03:17:15;;;;;;;25.17;14.35;;;5.40;99.90;;;;;;5033931;28;20107;-64
2022/11/26 03:19:41;;;;;;;20.23;13.05;;;5.50;99.90;;;;;;5033620;28;20076;-64
2022/11/26 03:22:07;;;;;;;22.33;13.18;;;5.50;99.90;;;;;;5033381;28;20415;-64
2022/11/26 03:24:33;;;;;;;19.35;11.85;;;5.60;99.90;;;;;;5037769;28;20028;-64
2022/11/26 03:26:59;;;;;;;20.92;13.77;;;5.60;99.90;;;;;;5053700;28;20385;-64
2022/11/26 03:29:25;;;;;;;13.52;9.57;;;5.70;99.90;;;;;;5053530;28;20486;-64
2022/11/26 03:31:51;;;;;;;20.85;15.00;;;5.60;99.90;;;;;;5053275;28;20025;-64
2022/11/26 03:34:17;;;;;;;12.82;10.38;;;5.50;99.90;;;;;;5053043;28;20028;-64
2022/11/26 03:36:42;;;;;;;22.38;14.55;;;5.60;99.90;;;;;;5052956;28;20067;-64
2022/11/26 03:39:08;;;;;;;15.25;9.65;;;5.40;99.90;;;;;;5052735;28;20029;-64
2022/11/26 03:41:34;;;;;;;12.23;10.13;;;5.40;99.90;;;;;;5053670;28;20051;-64
2022/11/26 03:44:00;;;;;;;23.95;16.23;;;5.50;99.90;;;;;;5052965;28;20024;-64
2022/11/26 03:46:25;;;;;;;17.45;13.85;;;5.50;99.90;;;;;;5052974;28;20028;-64
2022/11/26 03:48:51;;;;;;;17.63;14.18;;;5.50;99.90;;;;;;5052754;28;20405;-63
2022/11/26 03:51:17;;;;;;;13.57;12.18;;;5.60;99.90;;;;;;5053228;28;20561;-64
2022/11/26 03:53:42;;;;;;;15.30;11.05;;;5.60;99.90;;;;;;5052559;28;20095;-64
2022/11/26 03:56:08;;;;;;;14.35;12.23;;;5.60;99.90;;;;;;5052688;28;20440;-64
2022/11/26 03:58:34;;;;;;;24.55;17.23;;;5.60;99.90;;;;;;5052778;28;20057;-64
2022/11/26 04:01:05;;;;;;;23.70;17.48;;;5.60;99.90;;;;;;5052798;28;20100;-64
2022/11/26 04:03:31;;;;;;;20.58;15.52;;;5.60;99.90;;;;;;5052666;28;20035;-64
2022/11/26 04:05:57;;;;;;;26.92;17.65;;;5.60;99.90;;;;;;5052497;28;20120;-64
2022/11/26 04:08:22;;;;;;;17.35;12.63;;;5.70;99.90;;;;;;5052168;28;20104;-64
2022/11/26 04:10:48;;;;;;;24.23;15.80;;;5.60;99.90;;;;;;5051982;28;20029;-64
2022/11/26 04:13:13;;;;;;;29.20;17.85;;;5.60;99.90;;;;;;5052807;28;20056;-64
2022/11/26 04:15:40;;;;;;;25.60;14.88;;;5.60;99.90;;;;;;5052465;28;20025;-63
2022/11/26 04:18:06;;;;;;;39.17;23.13;;;5.70;99.90;;;;;;5052271;28;20028;-64
2022/11/26 04:20:32;;;;;;;23.58;17.77;;;5.60;99.90;;;;;;5051386;28;20033;-63
2022/11/26 04:22:57;;;;;;;32.00;19.90;;;5.60;99.90;;;;;;5052018;28;20060;-64
2022/11/26 04:25:23;;;;;;;31.90;21.27;;;5.60;99.90;;;;;;5052040;28;20111;-63
2022/11/26 04:27:49;;;;;;;26.48;17.92;;;5.50;99.90;;;;;;5051026;28;20033;-64
2022/11/26 04:30:15;;;;;;;25.50;17.88;;;5.30;99.90;;;;;;5052059;28;20033;-64
2022/11/26 04:32:40;;;;;;;26.85;16.48;;;5.20;99.90;;;;;;5052094;28;20017;-64
2022/11/26 04:35:07;;;;;;;25.50;17.88;;;5.10;99.90;;;;;;5050647;28;20390;-64
2022/11/26 04:37:34;;;;;;;43.67;21.52;;;5.10;99.90;;;;;;5051955;28;20032;-64
2022/11/26 04:39:59;;;;;;;49.35;24.77;;;5.00;99.90;;;;;;5051885;28;20110;-64
2022/11/26 04:42:25;;;;;;;31.73;18.23;;;4.90;99.90;;;;;;5051921;28;20036;-64
2022/11/26 04:44:51;;;;;;;25.92;15.10;;;5.00;99.90;;;;;;5050567;28;20115;-64
2022/11/26 04:47:17;;;;;;;97.93;30.25;;;5.10;99.90;;;;;;5052201;28;20094;-64
2022/11/26 04:49:43;;;;;;;34.80;16.88;;;5.10;99.90;;;;;;5051869;28;20463;-64
2022/11/26 04:52:09;;;;;;;17.52;14.57;;;5.20;99.90;;;;;;5051418;28;20494;-64
2022/11/26 04:54:35;;;;;;;35.58;21.25;;;5.20;99.90;;;;;;5052206;28;20033;-64
2022/11/26 04:57:01;;;;;;;39.88;23.13;;;5.20;99.90;;;;;;5051716;28;20036;-64
2022/11/26 04:59:26;;;;;;;24.17;16.45;;;5.20;99.90;;;;;;5051868;28;20099;-64
2022/11/26 05:01:52;;;;;;;28.77;17.33;;;5.30;99.90;;;;;;5051755;28;20112;-64
2022/11/26 05:04:19;;;;;;;24.63;15.68;;;5.40;99.90;;;;;;5051749;28;20021;-64
2022/11/26 05:06:45;;;;;;;28.08;15.38;;;5.60;99.90;;;;;;5051222;28;20035;-64
2022/11/26 05:09:10;;;;;;;21.33;13.25;;;5.60;99.90;;;;;;5051725;28;20358;-64
2022/11/26 05:11:36;;;;;;;20.80;12.18;;;5.80;99.90;;;;;;5051497;28;20545;-64
2022/11/26 05:14:02;;;;;;;23.83;13.18;;;5.90;99.90;;;;;;5051930;28;20021;-64
2022/11/26 05:16:27;;;;;;;27.70;13.40;;;5.90;99.90;;;;;;5051650;28;20604;-64
2022/11/26 05:18:53;;;;;;;22.85;12.15;;;6.00;99.90;;;;;;5051580;28;20096;-64
2022/11/26 05:21:19;;;;;;;28.00;13.70;;;6.00;99.90;;;;;;5052783;28;20470;-64
2022/11/26 05:23:44;;;;;;;26.40;13.43;;;6.00;99.90;;;;;;5055714;28;20029;-64
2022/11/26 05:26:10;;;;;;;24.45;13.70;;;6.00;99.90;;;;;;5055113;28;20444;-64
2022/11/26 05:28:36;;;;;;;34.25;16.38;;;6.00;99.90;;;;;;5055631;28;20096;-64
2022/11/26 05:31:02;;;;;;;33.63;16.33;;;6.00;99.90;;;;;;5055457;28;20029;-64
2022/11/26 05:33:28;;;;;;;30.50;17.38;;;5.90;99.90;;;;;;5055470;28;20110;-64
2022/11/26 05:35:54;;;;;;;34.78;18.10;;;6.00;99.90;;;;;;5055399;28;20474;-64
2022/11/26 05:38:20;;;;;;;42.10;19.20;;;6.00;99.90;;;;;;5055235;28;20098;-64
2022/11/26 05:40:46;;;;;;;26.95;16.42;;;5.80;99.90;;;;;;5055164;28;20057;-65
2022/11/26 05:43:12;;;;;;;27.73;15.85;;;5.80;99.90;;;;;;5055591;28;20490;-64
2022/11/26 05:45:37;;;;;;;22.52;12.73;;;5.80;99.90;;;;;;5055191;28;20036;-64
2022/11/26 05:48:03;;;;;;;34.28;16.08;;;5.80;99.90;;;;;;5055060;28;20041;-64
2022/11/26 05:50:30;;;;;;;25.35;12.90;;;5.70;99.90;;;;;;5054615;28;20021;-64
2022/11/26 05:52:56;;;;;;;29.30;13.95;;;5.70;99.90;;;;;;5055278;28;20090;-64
2022/11/26 05:55:22;;;;;;;26.70;13.90;;;5.70;99.90;;;;;;5055263;28;20104;-64
2022/11/26 05:57:47;;;;;;;34.45;15.45;;;5.50;99.90;;;;;;5055124;28;20043;-64
2022/11/26 06:00:14;;;;;;;38.50;17.02;;;5.40;99.90;;;;;;5054912;28;20399;-64
2022/11/26 06:02:40;;;;;;;42.70;19.67;;;5.40;99.90;;;;;;5054974;28;20032;-64
2022/11/26 06:05:06;;;;;;;40.35;17.85;;;5.40;99.90;;;;;;5054664;28;20028;-64
2022/11/26 06:07:32;;;;;;;40.80;18.20;;;5.30;99.90;;;;;;5055088;28;20528;-64
2022/11/26 06:09:57;;;;;;;54.20;23.73;;;5.00;99.90;;;;;;5054552;28;20025;-64
2022/11/26 06:12:24;;;;;;;39.88;23.20;;;4.80;99.90;;;;;;5055112;28;20112;-64
2022/11/26 06:14:49;;;;;;;40.20;21.10;;;4.70;99.90;;;;;;5054636;28;20025;-64
2022/11/26 06:17:15;;;;;;;46.10;21.70;;;4.50;99.90;;;;;;5054660;28;20052;-64
2022/11/26 06:19:41;;;;;;;42.40;20.45;;;4.80;99.90;;;;;;5054194;28;20031;-64
2022/11/26 06:22:06;;;;;;;46.33;23.00;;;4.80;99.90;;;;;;5054538;28;20060;-63
2022/11/26 06:24:33;;;;;;;41.85;20.30;;;4.80;99.90;;;;;;5054151;28;20079;-64
2022/11/26 06:26:58;;;;;;;33.22;17.80;;;4.50;99.90;;;;;;5054320;28;20409;-64
2022/11/26 06:29:24;;;;;;;102.20;27.80;;;4.60;99.90;;;;;;5054739;28;20017;-64
2022/11/26 06:31:50;;;;;;;42.72;19.73;;;4.40;99.90;;;;;;5054203;28;20486;-62
2022/11/26 06:34:16;;;;;;;39.70;20.15;;;4.40;99.90;;;;;;5052744;28;20031;-64
2022/11/26 06:36:42;;;;;;;37.13;20.17;;;4.40;99.90;;;;;;5053482;28;20060;-63
2022/11/26 06:39:09;;;;;;;51.80;21.83;;;4.40;99.90;;;;;;5053826;28;20052;-63
2022/11/26 06:41:35;;;;;;;29.00;16.42;;;4.10;99.90;;;;;;5053987;28;20573;-64
2022/11/26 06:44:01;;;;;;;34.58;17.38;;;4.40;99.90;;;;;;5054147;28;20112;-64
2022/11/26 06:46:27;;;;;;;47.83;20.55;;;4.50;99.90;;;;;;5053942;28;20040;-64
2022/11/26 06:48:53;;;;;;;41.15;20.30;;;4.50;99.90;;;;;;5053714;28;20021;-64
2022/11/26 06:51:20;;;;;;;36.90;19.10;;;4.70;99.90;;;;;;5053953;28;20021;-64
2022/11/26 06:53:49;;;;;;;42.80;20.48;;;4.70;99.90;;;;;;5053678;28;20025;-64
2022/11/26 06:56:16;;;;;;;49.42;19.40;;;4.60;99.90;;;;;;5053877;28;20025;-64
2022/11/26 06:58:43;;;;;;;43.45;18.67;;;4.40;99.90;;;;;;5054222;28;20108;-64
2022/11/26 07:01:10;;;;;;;44.38;20.08;;;4.10;99.90;;;;;;5053788;28;20234;-64
2022/11/26 07:03:37;;;;;;;56.03;22.92;;;3.90;99.90;;;;;;5053742;28;20086;-64
2022/11/26 07:06:02;;;;;;;52.72;21.27;;;4.10;99.90;;;;;;5053671;28;20087;-64
2022/11/26 07:08:28;;;;;;;44.45;19.52;;;4.10;99.90;;;;;;5053209;28;20041;-64
2022/11/26 07:10:54;;;;;;;46.53;20.90;;;4.30;99.90;;;;;;5053631;28;20029;-64
2022/11/26 07:13:19;;;;;;;44.10;22.65;;;4.40;99.90;;;;;;5053920;28;20039;-64
2022/11/26 07:15:45;;;;;;;140.85;70.57;;;4.30;99.90;;;;;;5053065;28;20113;-63
2022/11/26 07:18:11;;;;;;;81.57;49.15;;;4.20;99.90;;;;;;5053261;28;20028;-64
2022/11/26 07:20:37;;;;;;;57.03;36.65;;;4.20;99.90;;;;;;5053082;28;20075;-65
2022/11/26 07:23:03;;;;;;;57.13;32.97;;;4.20;99.90;;;;;;5052781;28;20029;-64
2022/11/26 07:25:30;;;;;;;59.78;35.30;;;4.30;99.90;;;;;;5053150;28;20091;-64
2022/11/26 07:27:56;;;;;;;45.38;25.92;;;4.50;99.90;;;;;;5053258;28;20037;-62
2022/11/26 07:30:22;;;;;;;52.47;31.00;;;4.70;99.90;;;;;;5052973;28;20497;-64
2022/11/26 07:32:47;;;;;;;86.78;58.95;;;4.60;99.90;;;;;;5053195;28;20029;-64
2022/11/26 07:35:13;;;;;;;67.10;50.47;;;4.60;99.90;;;;;;5053024;28;20024;-64
2022/11/26 07:37:38;;;;;;;65.03;44.33;;;4.50;99.90;;;;;;5053365;28;20067;-65
2022/11/26 07:40:05;;;;;;;55.70;38.20;;;4.40;99.90;;;;;;5052869;28;20498;-64
2022/11/26 07:42:32;;;;;;;87.80;52.85;;;4.50;99.90;;;;;;5053394;28;20108;-64
2022/11/26 07:44:58;;;;;;;91.30;57.03;;;4.60;99.90;;;;;;5052191;28;20086;-64
2022/11/26 07:47:24;;;;;;;96.75;58.33;;;4.70;99.90;;;;;;5052882;28;20040;-64
2022/11/26 07:49:51;;;;;;;57.40;33.97;;;4.50;99.90;;;;;;5052480;28;20048;-63
2022/11/26 07:52:17;;;;;;;59.20;32.83;;;4.50;99.90;;;;;;5053125;28;20024;-64
2022/11/26 07:54:42;;;;;;;51.30;29.13;;;4.50;99.90;;;;;;5052814;28;20021;-64
2022/11/26 07:57:09;;;;;;;40.97;23.55;;;4.70;99.90;;;;;;5052191;28;20540;-63
2022/11/26 07:59:35;;;;;;;50.20;31.17;;;4.80;99.90;;;;;;5052208;28;20033;-63
2022/11/26 08:02:00;;;;;;;44.78;27.95;;;4.80;99.90;;;;;;5052651;28;20078;-63
2022/11/26 08:04:26;;;;;;;48.75;29.83;;;5.00;99.90;;;;;;5052493;28;20035;-63
2022/11/26 08:06:52;;;;;;;50.63;29.33;;;5.00;99.90;;;;;;5052706;28;20040;-63
2022/11/26 08:09:17;;;;;;;52.20;32.92;;;5.10;99.90;;;;;;5052685;28;20029;-64
2022/11/26 08:11:43;;;;;;;32.67;21.23;;;5.50;99.90;;;;;;5052515;28;20367;-64
2022/11/26 08:14:11;;;;;;;28.50;18.42;;;5.70;99.90;;;;;;5051920;28;20024;-63
2022/11/26 08:16:37;;;;;;;42.25;26.23;;;5.80;99.90;;;;;;5052373;28;20032;-63
2022/11/26 08:19:06;;;;;;;40.75;25.42;;;6.00;99.90;;;;;;5052738;28;20017;-64
2022/11/26 08:21:33;;;;;;;26.77;19.25;;;6.80;99.90;;;;;;5052331;28;20021;-63
2022/11/26 08:23:59;;;;;;;42.22;24.63;;;7.40;99.90;;;;;;5052136;28;20090;-63
2022/11/26 08:26:25;;;;;;;24.73;17.38;;;7.80;99.90;;;;;;5052536;28;20449;-64
2022/11/26 08:28:52;;;;;;;34.78;20.55;;;8.30;99.90;;;;;;5051745;28;20505;-64
2022/11/26 08:31:18;;;;;;;24.65;17.02;;;8.90;99.90;;;;;;5052120;28;20021;-63
2022/11/26 08:33:44;;;;;;;24.30;17.55;;;10.20;99.90;;;;;;5052410;28;20024;-63
2022/11/26 08:36:11;;;;;;;18.77;12.82;;;10.80;99.90;;;;;;5050653;28;20386;-64
2022/11/26 08:38:37;;;;;;;19.08;11.85;;;12.00;99.90;;;;;;5051937;28;20021;-64
2022/11/26 08:41:08;;;;;;;13.60;10.05;;;13.00;99.90;;;;;;5051832;28;20449;-64
2022/11/26 08:43:35;;;;;;;17.00;11.43;;;11.20;99.90;;;;;;5052003;28;20520;-63
2022/11/26 08:46:02;;;;;;;18.25;11.63;;;10.00;99.90;;;;;;5052129;28;20029;-64
2022/11/26 08:48:29;;;;;;;19.38;11.02;;;9.40;99.90;;;;;;5051608;28;20029;-64
2022/11/26 08:51:04;;;;;;;13.75;9.98;;;9.10;99.90;;;;;;5051799;28;20103;-64
2022/11/26 08:53:31;;;;;;;15.88;9.30;;;9.20;99.90;;;;;;5051799;28;20429;-64
2022/11/26 08:56:01;;;;;;;15.98;10.05;;;9.50;99.90;;;;;;5051504;28;20517;-63
2022/11/26 08:58:27;;;;;;;17.73;9.38;;;9.50;99.90;;;;;;5051365;28;20025;-64
2022/11/26 09:00:53;;;;;;;16.48;9.30;;;9.40;99.90;;;;;;5052157;28;20056;-64
2022/11/26 09:03:19;;;;;;;17.23;9.32;;;9.30;99.90;;;;;;5051658;28;20063;-63
2022/11/26 09:05:44;;;;;;;18.15;10.52;;;9.10;99.90;;;;;;5051674;28;20108;-64
2022/11/26 09:08:10;;;;;;;13.77;11.93;;;9.30;99.90;;;;;;5051617;28;20032;-64
2022/11/26 09:10:36;;;;;;;18.83;12.90;;;9.50;99.90;;;;;;5051873;28;20428;-64
2022/11/26 09:13:01;;;;;;;14.25;9.02;;;9.70;99.90;;;;;;5051144;28;20421;-64
2022/11/26 09:15:27;;;;;;;18.70;10.07;;;10.00;99.90;;;;;;5051385;28;20029;-64
2022/11/26 09:17:53;;;;;;;16.08;11.35;;;10.20;99.90;;;;;;5051889;28;20028;-64
2022/11/26 09:20:18;;;;;;;19.85;14.52;;;10.20;99.90;;;;;;5051502;28;20496;-64
2022/11/26 09:22:44;;;;;;;24.17;15.43;;;10.40;99.90;;;;;;5051425;28;20029;-63
2022/11/26 09:25:10;;;;;;;20.27;13.23;;;10.20;99.90;;;;;;5051602;28;20043;-63
2022/11/26 09:27:36;;;;;;;19.73;10.15;;;10.50;99.90;;;;;;5050918;28;20047;-62
2022/11/26 09:30:02;;;;;;;13.70;6.97;;;11.10;99.90;;;;;;5051711;28;20031;-63
2022/11/26 09:32:28;;;;;;;18.10;7.85;;;11.00;99.90;;;;;;5051686;28;20036;-64
2022/11/26 09:34:53;;;;;;;12.63;6.07;;;10.60;99.90;;;;;;5051171;28;20025;-63
2022/11/26 09:37:19;;;;;;;13.55;5.72;;;10.10;99.90;;;;;;5051315;28;20035;-63
2022/11/26 09:39:45;;;;;;;12.68;6.25;;;9.90;99.90;;;;;;5051309;28;20037;-63
2022/11/26 09:42:19;;;;;;;10.98;5.40;;;9.80;99.90;;;;;;5050775;28;20091;-63
2022/11/26 09:45:02;;;;;;;9.88;4.30;;;10.10;99.90;;;;;;5051182;28;20051;-63
2022/11/26 09:47:36;;;;;;;13.13;4.97;;;10.10;99.90;;;;;;5051407;28;20522;-63
2022/11/26 09:50:22;;;;;;;11.93;5.07;;;10.00;99.90;;;;;;5051171;28;20017;-63
2022/11/26 09:53:12;;;;;;;12.13;5.35;;;10.20;99.90;;;;;;5051233;28;20472;-63
2022/11/26 09:55:42;;;;;;;11.10;4.30;;;10.20;99.90;;;;;;5050812;28;20025;-63
2022/11/26 09:58:26;;;;;;;12.57;3.85;;;10.10;99.90;;;;;;5051142;28;20067;-63
2022/11/26 10:00:53;;;;;;;;;;;10.30;99.90;;;;;;5051415;28;20029;-63
2022/11/26 10:03:21;;;;;;;12.93;5.82;;;10.60;99.90;;;;;;5051520;28;19909;-62
2022/11/26 10:05:59;;;;;;;8.93;4.50;;;11.20;99.90;;;;;;5051211;28;20041;-63
2022/11/26 10:08:43;;;;;;;12.15;5.35;;;11.10;99.90;;;;;;5053814;28;20041;-63
2022/11/26 10:11:30;;;;;;;12.45;5.95;;;11.10;99.90;;;;;;5054467;28;20484;-63
2022/11/26 10:14:06;;;;;;;12.45;5.45;;;10.80;99.90;;;;;;5054584;28;20060;-63
2022/11/26 10:17:09;;;;;;;14.13;6.95;;;10.60;99.90;;;;;;5054631;28;20021;-63
2022/11/26 10:20:12;;;;;;;13.70;5.78;;;10.50;99.90;;;;;;5054560;28;20028;-63
2022/11/26 10:22:57;;;;;;;16.17;8.10;;;10.70;99.90;;;;;;5032285;28;20519;-63
2022/11/26 10:25:27;;;;;;;15.13;5.53;;;10.60;99.90;;;;;;5031725;28;20498;-63
2022/11/26 10:27:55;;;;;;;10.65;3.88;;;10.80;99.90;;;;;;5032210;28;20068;-63
2022/11/26 10:30:24;;;;;;;11.80;4.65;;;11.00;99.90;;;;;;5032133;28;20776;-63
2022/11/26 10:32:51;;;;;;;12.02;4.43;;;11.10;99.90;;;;;;5032356;28;20135;-63
2022/11/26 10:35:22;;;;;;;14.43;5.47;;;11.00;99.90;;;;;;5032287;28;20025;-63
2022/11/26 10:37:48;;;;;;;12.90;5.70;;;11.00;99.90;;;;;;5032086;28;20045;-63
2022/11/26 10:40:25;;;;;;;14.20;5.80;;;11.10;99.90;;;;;;5031412;28;20081;-63
2022/11/26 10:43:19;;;;;;;12.45;5.10;;;11.20;99.90;;;;;;5032072;28;20033;-63
2022/11/26 10:45:47;;;;;;;10.88;4.45;;;11.40;99.90;;;;;;5032278;28;20029;-63
2022/11/26 10:48:19;;;;;;;10.18;3.95;;;11.90;99.90;;;;;;5031725;28;20141;-63
2022/11/26 10:50:54;;;;;;;13.55;3.53;;;12.10;99.90;;;;;;5031745;28;20120;-63
2022/11/26 10:53:23;;;;;;;12.13;4.15;;;11.90;99.90;;;;;;5031873;28;20033;-63
2022/11/26 10:55:51;;;;;;;13.85;5.07;;;12.00;99.90;;;;;;5032175;28;20033;-63
2022/11/26 10:58:27;;;;;;;11.13;3.80;;;12.10;99.90;;;;;;5033732;28;20601;-63
2022/11/26 11:00:59;;;;;;;14.30;4.00;;;12.30;99.90;;;;;;5033905;28;20032;-63
2022/11/26 11:03:37;;;;;;;15.63;3.90;;;12.50;99.90;;;;;;5033973;28;20037;-63
2022/11/26 11:06:26;;;;;;;16.10;3.88;;;12.40;99.90;;;;;;5034231;28;20572;-63
2022/11/26 11:08:53;;;;;;;12.75;3.95;;;13.20;99.90;;;;;;5033368;28;20045;-63
2022/11/26 11:11:26;;;;;;;12.73;3.20;;;14.90;99.90;;;;;;5033721;28;20422;-62
2022/11/26 11:13:52;;;;;;;12.13;3.45;;;14.00;99.90;;;;;;5033610;28;20509;-63
2022/11/26 11:16:30;;;;;;;13.88;3.55;;;13.20;99.90;;;;;;5033482;28;20037;-63
2022/11/26 11:19:01;;;;;;;12.23;3.20;;;13.30;99.90;;;;;;5033496;28;20079;-63
2022/11/26 11:21:33;;;;;;;9.60;3.33;;;13.60;99.90;;;;;;5033555;28;20210;-63
2022/11/26 11:24:16;;;;;;;13.43;3.03;;;14.10;99.90;;;;;;5033087;28;20548;-63
2022/11/26 11:26:45;;;;;;;13.27;3.40;;;14.20;99.90;;;;;;5053099;28;20385;-63
2022/11/26 11:29:37;;;;;;;15.70;3.63;;;13.40;99.90;;;;;;5053178;28;20640;-63
2022/11/26 11:32:05;;;;;;;12.18;3.00;;;13.00;99.90;;;;;;5053442;28;20044;-63
2022/11/26 11:34:37;;;;;;;10.23;3.60;;;13.30;99.90;;;;;;5053179;28;20048;-63
2022/11/26 11:37:04;;;;;;;12.63;3.33;;;12.90;99.90;;;;;;5052769;28;20024;-63
2022/11/26 11:39:33;;;;;;;19.63;3.67;;;13.10;99.90;;;;;;5051638;28;20029;-63
2022/11/26 11:42:02;;;;;;;13.15;4.20;;;13.20;99.90;;;;;;5052863;28;20494;-63
2022/11/26 11:44:38;;;;;;;9.82;3.15;;;13.50;99.90;;;;;;5053010;28;20051;-63
2022/11/26 11:47:13;;;;;;;9.25;2.83;;;13.10;99.90;;;;;;5052945;28;20044;-63
2022/11/26 11:50:07;;;;;;;13.18;4.50;;;12.90;99.90;;;;;;5053447;28;20098;-63
2022/11/26 11:52:51;;;;;;;14.15;3.10;;;13.10;99.90;;;;;;5052285;28;20029;-63
2022/11/26 11:55:22;;;;;;;;;;;13.00;99.90;;;;;;5053228;28;20036;-63
2022/11/26 11:57:55;;;;;;;12.55;2.90;;;13.10;99.90;;;;;;5052827;28;20321;-63
2022/11/26 12:00:30;;;;;;;11.20;4.03;;;13.00;99.90;;;;;;5052790;28;20104;-63
2022/11/26 12:03:30;;;;;;;10.27;3.08;;;13.20;99.90;;;;;;5052629;28;20402;-63
2022/11/26 12:06:04;;;;;;;9.57;2.58;;;13.60;99.90;;;;;;5052228;28;20086;-63
2022/11/26 12:08:49;;;;;;;9.93;2.83;;;13.60;99.90;;;;;;5052951;28;20118;-63
2022/11/26 12:11:22;;;;;;;11.50;2.90;;;13.20;99.90;;;;;;5052870;28;20032;-63
2022/11/26 12:14:11;;;;;;;7.15;2.35;;;13.10;99.90;;;;;;5052511;28;20033;-63
2022/11/26 12:16:42;;;;;;;15.43;3.15;;;13.30;99.90;;;;;;5052035;28;20044;-63
2022/11/26 12:19:39;;;;;;;10.15;3.10;;;12.90;99.90;;;;;;5052921;28;20552;-63
2022/11/26 12:22:25;;;;;;;10.48;2.45;;;13.20;99.90;;;;;;5052470;28;20033;-63
2022/11/26 12:25:00;;;;;;;10.82;2.75;;;13.10;99.90;;;;;;5052135;28;20120;-63
2022/11/26 12:27:37;;;;;;;10.93;2.75;;;13.10;99.90;;;;;;5050651;28;20021;-63
2022/11/26 12:30:28;;;;;;;11.35;2.60;;;13.20;99.90;;;;;;5051976;28;20107;-63
2022/11/26 12:33:00;;;;;;;9.18;2.38;;;13.20;99.90;;;;;;5051893;28;20059;-63
2022/11/26 12:35:32;;;;;;;9.98;2.70;;;13.10;99.90;;;;;;5051931;28;20541;-63
2022/11/26 12:38:06;;;;;;;11.00;2.90;;;13.40;99.90;;;;;;5052168;28;20025;-63
2022/11/26 12:40:43;;;;;;;8.40;2.45;;;13.30;99.90;;;;;;5051750;28;20510;-63
2022/11/26 12:43:20;;;;;;;9.82;2.60;;;13.10;99.90;;;;;;5052202;28;20469;-63
2022/11/26 12:45:51;;;;;;;8.60;2.38;;;12.90;99.90;;;;;;5052069;28;20017;-63
2022/11/26 12:48:19;;;;;;;8.38;2.45;;;12.80;99.90;;;;;;5052304;28;20033;-63
2022/11/26 12:50:51;;;;;;;10.65;3.35;;;12.90;99.90;;;;;;5051300;28;20064;-63
2022/11/26 12:53:56;;;;;;;12.25;3.38;;;13.00;99.90;;;;;;5052000;28;20035;-64